Time;durP1;ratioP1;P1;durP2;ratioP2;P2;SDS_P1;SDS_P2;PMS_P1;PMS_P2;Temp;Humidity;BMP_temperature;BMP_pressure;BME280_temperature;BME280_humidity;BME280_pressure;Samples;Min_cycle;Max_cycle;Signal;HPM_P1;HPM_P2
2021/01/23 00:01:17;;;;;;;11.25;8.45;;;;;;;10.74;100.00;100843.22;5021746;28;20100;-73
2021/01/23 00:04:03;;;;;;;12.93;9.00;;;;;;;10.81;100.00;100842.25;5022741;28;20120;-74
2021/01/23 00:06:49;;;;;;;13.32;8.27;;;;;;;10.81;100.00;100837.84;5034742;28;20434;-73
2021/01/23 00:09:34;;;;;;;11.23;8.40;;;;;;;10.79;100.00;100836.13;5022186;28;20462;-72
2021/01/23 00:12:20;;;;;;;10.95;7.90;;;;;;;10.78;100.00;100840.53;5034865;28;20021;-72
2021/01/23 00:15:08;;;;;;;14.02;9.30;;;;;;;11.00;100.00;100844.50;5036013;28;20477;-73
2021/01/23 00:17:53;;;;;;;16.10;11.00;;;;;;;10.52;100.00;100828.75;5021745;28;20037;-73
2021/01/23 00:20:39;;;;;;;14.55;10.77;;;;;;;10.60;100.00;100837.34;5035832;28;20029;-73
2021/01/23 00:23:25;;;;;;;15.80;9.85;;;;;;;10.63;100.00;100835.53;5035113;28;20047;-73
2021/01/23 00:26:11;;;;;;;14.68;10.10;;;;;;;10.57;100.00;100832.16;5021980;28;20053;-73
2021/01/23 00:28:56;;;;;;;12.32;9.30;;;;;;;10.43;100.00;100826.25;5034592;28;20037;-73
2021/01/23 00:31:42;;;;;;;15.43;10.40;;;;;;;10.57;100.00;100819.03;5035126;28;20014;-75
2021/01/23 00:34:28;;;;;;;12.73;9.15;;;;;;;10.82;100.00;100831.72;5035368;28;20025;-73
2021/01/23 00:37:14;;;;;;;12.73;9.25;;;;;;;10.42;100.00;100830.63;5034404;28;20041;-74
2021/01/23 00:39:59;;;;;;;14.20;9.15;;;;;;;10.82;100.00;100841.34;5035419;28;20025;-73
2021/01/23 00:42:45;;;;;;;16.45;12.10;;;;;;;10.29;100.00;100844.78;5034064;28;20041;-74
2021/01/23 00:45:31;;;;;;;24.83;17.38;;;;;;;9.87;100.00;100840.09;5036046;28;20045;-73
2021/01/23 00:48:17;;;;;;;32.10;21.13;;;;;;;9.59;100.00;100833.47;5034211;28;20048;-73
2021/01/23 00:51:03;;;;;;;34.22;22.55;;;;;;;9.68;100.00;100830.72;5034468;28;20044;-74
2021/01/23 00:53:49;;;;;;;34.33;22.60;;;;;;;9.70;100.00;100826.38;5034066;28;20037;-74
2021/01/23 00:56:35;;;;;;;30.13;21.77;;;;;;;10.02;100.00;100821.59;5034356;28;20449;-74
2021/01/23 00:59:21;;;;;;;34.40;22.35;;;;;;;9.84;100.00;100821.81;5035212;28;20438;-74
2021/01/23 01:02:06;;;;;;;34.50;22.60;;;;;;;9.47;100.00;100813.56;5035348;28;20082;-74
2021/01/23 01:04:52;;;;;;;40.35;25.88;;;;;;;9.37;100.00;100814.53;5034776;28;20099;-74
2021/01/23 01:07:38;;;;;;;44.30;28.38;;;;;;;9.41;100.00;100805.75;5034010;28;20032;-74
2021/01/23 01:10:23;;;;;;;37.97;24.48;;;;;;;9.25;100.00;100806.81;5035990;28;20385;-74
2021/01/23 01:13:09;;;;;;;31.58;20.50;;;;;;;9.38;100.00;100816.28;5034336;28;20029;-74
2021/01/23 01:15:55;;;;;;;32.33;21.80;;;;;;;9.26;100.00;100805.06;5035434;28;20033;-73
2021/01/23 01:18:40;;;;;;;28.73;18.95;;;;;;;9.40;100.00;100804.03;5020252;28;20036;-73
2021/01/23 01:21:26;;;;;;;27.52;18.33;;;;;;;9.51;100.00;100796.06;5034110;28;20017;-73
2021/01/23 01:24:12;;;;;;;34.45;21.52;;;;;;;9.54;100.00;100796.03;5019675;28;20084;-75
2021/01/23 01:26:58;;;;;;;27.75;18.35;;;;;;;9.54;100.00;100793.44;5034121;28;20025;-74
2021/01/23 01:29:43;;;;;;;30.98;18.98;;;;;;;9.41;100.00;100797.06;5034064;28;20335;-73
2021/01/23 01:32:29;;;;;;;34.00;21.13;;;;;;;9.05;100.00;100785.25;5033854;28;20048;-73
2021/01/23 01:35:16;;;;;;;38.53;24.50;;;;;;;9.24;100.00;100781.56;5019551;28;20037;-73
2021/01/23 01:38:02;;;;;;;56.05;33.58;;;;;;;9.32;100.00;100779.72;5034842;28;20033;-73
2021/01/23 01:40:51;;;;;;;56.80;33.88;;;;;;;9.30;100.00;100775.41;5020151;28;20030;-74
2021/01/23 01:43:36;;;;;;;49.75;30.90;;;;;;;9.14;100.00;100781.69;5033351;28;20077;-74
2021/01/23 01:46:22;;;;;;;44.08;27.02;;;;;;;9.13;100.00;100782.56;5021326;28;20073;-74
2021/01/23 01:49:08;;;;;;;37.45;23.85;;;;;;;8.96;100.00;100776.66;5033350;28;20022;-73
2021/01/23 01:51:55;;;;;;;37.13;25.48;;;;;;;9.20;100.00;100774.63;5033646;28;20029;-73
2021/01/23 01:54:42;;;;;;;43.70;27.27;;;;;;;9.16;100.00;100766.84;5033325;28;20477;-74
2021/01/23 01:57:27;;;;;;;37.38;23.30;;;;;;;8.72;100.00;100769.06;5034199;28;20030;-73
2021/01/23 02:00:14;;;;;;;35.08;22.65;;;;;;;9.10;100.00;100767.78;5033356;28;20030;-73
2021/01/23 02:03:37;;;;;;;38.97;23.90;;;;;;;8.92;100.00;100757.53;5018379;28;20018;-74
2021/01/23 02:06:52;;;;;;;35.00;22.30;;;;;;;9.14;100.00;100769.50;5019760;28;20021;-73
2021/01/23 02:09:58;;;;;;;25.80;17.27;;;;;;;8.96;100.00;100767.06;5012636;28;20146;-73
2021/01/23 02:13:04;;;;;;;25.35;16.77;;;;;;;9.12;100.00;100759.91;5033027;28;20033;-74
2021/01/23 02:16:37;;;;;;;26.27;17.20;;;;;;;9.15;100.00;100754.66;5034074;28;20063;-74
2021/01/23 02:19:28;;;;;;;18.70;12.25;;;;;;;9.31;100.00;100751.88;5034226;28;20466;-73
2021/01/23 02:22:47;;;;;;;17.02;9.63;;;;;;;9.42;100.00;100754.34;5019617;28;20446;-73
2021/01/23 02:25:43;;;;;;;18.55;9.77;;;;;;;9.51;100.00;100743.75;5032300;28;20029;-73
2021/01/23 02:28:41;;;;;;;15.15;9.10;;;;;;;9.65;100.00;100745.31;5034238;28;20049;-74
2021/01/23 02:31:29;;;;;;;14.70;9.55;;;;;;;9.86;100.00;100749.41;5033472;28;20155;-73
2021/01/23 02:34:19;;;;;;;15.98;11.52;;;;;;;9.83;100.00;100747.69;5020010;28;20041;-73
2021/01/23 02:37:05;;;;;;;27.75;17.88;;;;;;;8.94;100.00;100747.06;5034198;28;20399;-74
2021/01/23 02:39:53;;;;;;;23.55;16.50;;;;;;;8.60;100.00;100740.44;5021010;28;20124;-73
2021/01/23 02:42:39;;;;;;;25.13;16.35;;;;;;;8.30;100.00;100745.91;5032546;28;20124;-73
2021/01/23 02:45:25;;;;;;;23.13;15.55;;;;;;;8.28;100.00;100745.06;5036950;28;20041;-73
2021/01/23 02:48:11;;;;;;;20.70;14.15;;;;;;;8.18;100.00;100744.25;5036912;28;20040;-73
2021/01/23 02:50:58;;;;;;;18.33;12.63;;;;;;;8.27;100.00;100738.09;5024265;28;20057;-73
2021/01/23 02:53:48;;;;;;;19.58;13.15;;;;;;;8.41;100.00;100737.09;5036206;28;20470;-73
2021/01/23 02:56:35;;;;;;;21.25;13.77;;;;;;;8.73;100.00;100739.44;5037503;28;20183;-73
2021/01/23 02:59:22;;;;;;;21.50;13.40;;;;;;;8.51;100.00;100727.44;5036215;28;20041;-73
2021/01/23 03:02:11;;;;;;;19.63;12.20;;;;;;;8.83;100.00;100730.63;5036889;28;20082;-72
2021/01/23 03:04:59;;;;;;;18.20;12.25;;;;;;;8.70;100.00;100729.91;5022745;28;20373;-73
2021/01/23 03:07:46;;;;;;;18.00;12.43;;;;;;;8.70;100.00;100727.28;5023244;28;20437;-73
2021/01/23 03:10:37;;;;;;;20.35;13.60;;;;;;;8.38;100.00;100725.84;5036425;28;20059;-74
2021/01/23 03:13:23;;;;;;;22.88;14.80;;;;;;;8.30;100.00;100723.28;5036128;28;20025;-73
2021/01/23 03:16:09;;;;;;;25.27;15.32;;;;;;;8.22;100.00;100721.63;5037129;28;20037;-73
2021/01/23 03:18:55;;;;;;;26.50;16.23;;;;;;;8.23;100.00;100720.72;5036401;28;20378;-73
2021/01/23 03:21:42;;;;;;;25.88;15.80;;;;;;;8.19;100.00;100724.22;5037226;28;20395;-73
2021/01/23 03:24:28;;;;;;;27.05;17.13;;;;;;;8.07;100.00;100717.34;5021888;28;20452;-73
2021/01/23 03:27:13;;;;;;;33.05;19.73;;;;;;;7.99;100.00;100713.94;5022684;28;20071;-73
2021/01/23 03:29:59;;;;;;;35.50;20.15;;;;;;;7.87;100.00;100710.53;5036282;28;20079;-72
2021/01/23 03:32:47;;;;;;;38.28;22.48;;;;;;;8.23;100.00;100718.13;5023293;28;20464;-74
2021/01/23 03:35:33;;;;;;;34.17;21.67;;;;;;;8.13;100.00;100706.88;5036265;28;20095;-74
2021/01/23 03:38:18;;;;;;;37.40;24.88;;;;;;;7.96;100.00;100713.09;5036205;28;20104;-73
2021/01/23 03:41:04;;;;;;;37.42;24.60;;;;;;;7.56;100.00;100719.44;5036707;28;20503;-74
2021/01/23 03:43:50;;;;;;;32.90;20.98;;;;;;;7.71;100.00;100724.53;5035736;28;20484;-74
2021/01/23 03:46:36;;;;;;;32.22;19.50;;;;;;;7.77;100.00;100722.78;5036210;28;20361;-74
2021/01/23 03:49:21;;;;;;;35.25;21.10;;;;;;;7.92;100.00;100711.38;5022094;28;20083;-73
2021/01/23 03:52:07;;;;;;;36.53;20.98;;;;;;;7.77;100.00;100714.09;5021735;28;20021;-74
2021/01/23 03:54:53;;;;;;;41.35;24.23;;;;;;;7.57;100.00;100719.44;5035186;28;20420;-73
2021/01/23 03:57:39;;;;;;;37.67;24.95;;;;;;;7.88;100.00;100710.53;5035687;28;20029;-73
2021/01/23 04:00:24;;;;;;;32.78;21.38;;;;;;;7.36;100.00;100729.94;5035034;28;20064;-72
2021/01/23 04:03:10;;;;;;;37.78;23.92;;;;;;;7.68;100.00;100717.59;5035761;28;20025;-73
2021/01/23 04:05:56;;;;;;;38.65;23.88;;;;;;;7.50;100.00;100722.06;5035617;28;20458;-73
2021/01/23 04:08:42;;;;;;;34.92;22.15;;;;;;;7.51;100.00;100721.22;5036171;28;20365;-73
2021/01/23 04:11:27;;;;;;;35.22;23.60;;;;;;;8.03;100.00;100712.16;5034657;28;20090;-72
2021/01/23 04:14:13;;;;;;;35.15;24.02;;;;;;;7.77;100.00;100699.31;5036265;28;20029;-75
2021/01/23 04:16:59;;;;;;;38.40;23.58;;;;;;;7.89;100.00;100703.56;5034989;28;20464;-73
2021/01/23 04:19:45;;;;;;;42.72;29.42;;;;;;;7.61;100.00;100707.22;5035046;28;20481;-73
2021/01/23 04:22:31;;;;;;;40.47;26.45;;;;;;;7.90;100.00;100700.97;5035308;28;20040;-74
2021/01/23 04:25:17;;;;;;;40.00;26.30;;;;;;;7.73;100.00;100695.00;5034605;28;20335;-74
2021/01/23 04:28:03;;;;;;;40.97;26.88;;;;;;;7.96;100.00;100693.06;5035889;28;20025;-73
2021/01/23 04:30:49;;;;;;;36.10;25.63;;;;;;;8.07;100.00;100696.47;5034779;28;20026;-74
2021/01/23 04:33:34;;;;;;;39.60;25.27;;;;;;;7.80;100.00;100701.03;5021109;28;20044;-73
2021/01/23 04:36:20;;;;;;;39.47;25.23;;;;;;;7.88;100.00;100701.84;5034889;28;20469;-74
2021/01/23 04:39:06;;;;;;;39.97;24.85;;;;;;;7.90;100.00;100694.88;5034916;28;20370;-73
2021/01/23 04:41:52;;;;;;;41.00;25.23;;;;;;;7.73;100.00;100707.16;5020616;28;20041;-74
2021/01/23 04:44:38;;;;;;;38.50;26.67;;;;;;;7.70;100.00;100697.63;5035361;28;20025;-73
2021/01/23 04:47:24;;;;;;;40.00;26.10;;;;;;;7.51;100.00;100708.16;5034391;28;20029;-73
2021/01/23 04:50:11;;;;;;;39.80;23.85;;;;;;;7.80;100.00;100698.44;5035481;28;20025;-73
2021/01/23 04:52:57;;;;;;;35.67;23.67;;;;;;;7.72;100.00;100701.06;5034874;28;20361;-74
2021/01/23 04:55:43;;;;;;;33.35;22.95;;;;;;;8.14;100.00;100700.78;5035413;28;20382;-72
2021/01/23 04:58:30;;;;;;;33.75;21.40;;;;;;;8.09;100.00;100697.34;5036023;28;20057;-72
2021/01/23 05:01:15;;;;;;;35.22;23.42;;;;;;;7.73;100.00;100695.00;5034492;28;20021;-73
2021/01/23 05:04:02;;;;;;;31.50;20.73;;;;;;;7.62;100.00;100695.91;5034475;28;20025;-73
2021/01/23 05:06:57;;;;;;;35.03;23.48;;;;;;;7.38;100.00;100693.44;5020587;28;20061;-73
2021/01/23 05:09:42;;;;;;;30.70;22.13;;;;;;;7.30;100.00;100695.22;5036230;28;20501;-73
2021/01/23 05:12:35;;;;;;;44.20;26.88;;;;;;;7.68;100.00;100688.91;5019749;28;20038;-74
2021/01/23 05:15:26;;;;;;;39.33;24.20;;;;;;;7.49;100.00;100689.06;5020959;28;20064;-73
2021/01/23 05:18:16;;;;;;;40.58;24.52;;;;;;;7.48;100.00;100684.72;5034336;28;20029;-73
2021/01/23 05:21:11;;;;;;;44.30;25.17;;;;;;;7.78;100.00;100674.97;5035183;28;20392;-73
2021/01/23 05:24:03;;;;;;;33.95;21.25;;;;;;;7.67;100.00;100681.13;5021272;28;20029;-73
2021/01/23 05:26:55;;;;;;;33.10;20.17;;;;;;;7.70;100.00;100687.19;5035304;28;20476;-73
2021/01/23 05:29:59;;;;;;;34.88;22.25;;;;;;;7.87;100.00;100677.50;5020760;28;20037;-73
2021/01/23 05:32:44;;;;;;;37.72;23.45;;;;;;;8.02;100.00;100677.38;5020492;28;20025;-73
2021/01/23 05:35:30;;;;;;;55.58;31.60;;;;;;;7.88;100.00;100667.94;5033512;28;20512;-73
2021/01/23 05:38:40;;;;;;;49.30;29.10;;;;;;;7.55;100.00;100661.19;5034372;28;20037;-73
2021/01/23 05:41:27;;;;;;;43.50;26.52;;;;;;;7.59;100.00;100659.47;5020331;28;20466;-74
2021/01/23 05:44:12;;;;;;;35.60;22.77;;;;;;;7.48;100.00;100650.84;5019604;28;20037;-73
2021/01/23 05:46:58;;;;;;;35.72;24.25;;;;;;;8.00;100.00;100665.25;5033885;28;20457;-73
2021/01/23 05:49:44;;;;;;;40.60;24.10;;;;;;;8.06;100.00;100658.22;5033390;28;20033;-73
2021/01/23 05:52:30;;;;;;;40.17;25.27;;;;;;;8.24;100.00;100645.03;5033645;28;20033;-73
2021/01/23 05:55:16;;;;;;;40.78;25.63;;;;;;;8.25;100.00;100657.22;5033221;28;20032;-73
2021/01/23 05:58:03;;;;;;;41.97;27.80;;;;;;;8.22;100.00;100646.81;5034207;28;20029;-73
2021/01/23 06:00:49;;;;;;;46.00;29.42;;;;;;;7.89;100.00;100652.28;5033703;28;20037;-73
2021/01/23 06:03:41;;;;;;;53.30;32.92;;;;;;;7.93;100.00;100659.22;5033594;28;20076;-73
2021/01/23 06:06:43;;;;;;;47.17;31.08;;;;;;;8.02;100.00;100659.13;5033090;28;20025;-73
2021/01/23 06:09:38;;;;;;;41.72;26.23;;;;;;;7.81;100.00;100668.84;5034010;28;20461;-73
2021/01/23 06:12:26;;;;;;;41.28;25.05;;;;;;;8.15;100.00;100665.09;5033282;28;20033;-73
2021/01/23 06:15:30;;;;;;;40.78;25.85;;;;;;;7.70;100.00;100660.22;5033809;28;20109;-73
2021/01/23 06:18:22;;;;;;;42.35;26.73;;;;;;;7.74;100.00;100661.94;5033574;28;20033;-73
2021/01/23 06:21:08;;;;;;;42.63;27.50;;;;;;;8.19;100.00;100658.97;5037986;28;20104;-73
2021/01/23 06:23:54;;;;;;;40.60;25.77;;;;;;;8.53;100.00;100652.59;5036827;28;20040;-73
2021/01/23 06:26:55;;;;;;;37.03;25.02;;;;;;;8.40;100.00;100649.22;5037679;28;20040;-73
2021/01/23 06:29:45;;;;;;;41.63;27.20;;;;;;;8.76;100.00;100648.84;5037033;28;20490;-73
2021/01/23 06:32:31;;;;;;;41.60;28.05;;;;;;;8.50;100.00;100636.97;5037851;28;20462;-73
2021/01/23 06:35:16;;;;;;;44.40;30.30;;;;;;;8.52;100.00;100646.50;5038070;28;20053;-74
2021/01/23 06:38:12;;;;;;;42.22;26.90;;;;;;;8.73;100.00;100642.81;5037768;28;20121;-74
2021/01/23 06:41:27;;;;;;;43.08;27.70;;;;;;;8.82;100.00;100638.34;5037596;28;20386;-72
2021/01/23 06:44:18;;;;;;;42.38;28.98;;;;;;;8.85;100.00;100637.44;5037454;28;20076;-73
2021/01/23 06:47:04;;;;;;;51.28;33.78;;;;;;;8.86;100.00;100636.56;5037399;28;20496;-74
2021/01/23 06:49:50;;;;;;;63.72;37.08;;;;;;;8.73;100.00;100638.44;5037078;28;20043;-74
2021/01/23 06:52:49;;;;;;;61.33;38.33;;;;;;;8.70;100.00;100653.28;5036435;28;20029;-74
2021/01/23 06:55:51;;;;;;;58.75;35.60;;;;;;;8.77;100.00;100650.56;5036381;28;20410;-74
2021/01/23 06:58:38;;;;;;;59.40;36.35;;;;;;;8.71;100.00;100648.03;5037042;28;20124;-73
2021/01/23 07:01:24;;;;;;;55.20;34.88;;;;;;;8.48;100.00;100642.19;5037326;28;20024;-73
2021/01/23 07:04:10;;;;;;;54.53;35.97;;;;;;;8.70;100.00;100635.00;5037182;28;20053;-75
2021/01/23 07:06:57;;;;;;;51.25;33.58;;;;;;;9.12;100.00;100637.06;5037832;28;20442;-75
2021/01/23 07:09:52;;;;;;;50.00;31.50;;;;;;;8.87;100.00;100631.31;5036522;28;20087;-73
2021/01/23 07:12:39;;;;;;;52.20;31.20;;;;;;;9.04;100.00;100636.31;5035894;28;20315;-73
2021/01/23 07:15:28;;;;;;;55.85;33.05;;;;;;;9.21;100.00;100635.22;5022468;28;20108;-73
2021/01/23 07:18:14;;;;;;;51.22;30.48;;;;;;;9.06;100.00;100634.56;5021942;28;20025;-73
2021/01/23 07:21:01;;;;;;;47.00;28.60;;;;;;;9.33;100.00;100628.97;5036622;28;20172;-74
2021/01/23 07:23:47;;;;;;;44.60;27.58;;;;;;;9.03;100.00;100627.63;5021950;28;20450;-74
2021/01/23 07:26:33;;;;;;;42.60;26.15;;;;;;;9.80;100.00;100618.66;5037058;28;20090;-74
2021/01/23 07:29:19;;;;;;;42.95;26.58;;;;;;;10.00;100.00;100625.31;5035847;28;20048;-74
2021/01/23 07:32:05;;;;;;;45.95;26.40;;;;;;;10.04;100.00;100619.13;5035852;28;20517;-72
2021/01/23 07:34:59;;;;;;;38.72;25.63;;;;;;;10.23;100.00;100621.44;5036070;28;20029;-73
2021/01/23 07:37:56;;;;;;;43.85;26.52;;;;;;;10.36;100.00;100612.50;5036330;28;20036;-72
2021/01/23 07:40:42;;;;;;;42.50;25.88;;;;;;;10.53;100.00;100615.66;5035719;28;20457;-72
2021/01/23 07:43:28;;;;;;;41.15;25.77;;;;;;;10.37;100.00;100614.22;5035755;28;20087;-73
2021/01/23 07:46:14;;;;;;;40.67;26.45;;;;;;;10.49;100.00;100606.97;5035607;28;20468;-72
2021/01/23 07:49:00;;;;;;;42.25;26.92;;;;;;;10.68;100.00;100605.75;5035683;28;20164;-73
2021/01/23 07:51:46;;;;;;;44.10;28.08;;;;;;;10.30;100.00;100600.38;5035611;28;20480;-72
2021/01/23 07:54:32;;;;;;;45.70;29.67;;;;;;;10.36;100.00;100594.19;5035887;28;20061;-72
2021/01/23 07:57:18;;;;;;;40.38;25.75;;;;;;;10.45;100.00;100581.75;5035888;28;20037;-72
2021/01/23 08:00:19;;;;;;;45.08;27.40;;;;;;;10.82;100.00;100587.13;5035638;28;20124;-72
2021/01/23 08:03:06;;;;;;;52.00;30.85;;;;;;;11.10;100.00;100577.78;5035499;28;20032;-73
2021/01/23 08:05:57;;;;;;;44.67;28.92;;;;;;;11.56;100.00;100576.72;5035130;28;20032;-73
2021/01/23 08:08:43;;;;;;;45.20;28.70;;;;;;;11.93;100.00;100566.22;5023373;28;20103;-73
2021/01/23 08:11:40;;;;;;;34.13;22.67;;;;;;;11.96;100.00;100574.88;5035325;28;20025;-74
2021/01/23 08:14:26;;;;;;;26.95;18.88;;;;;;;12.16;100.00;100577.84;5036355;28;20469;-73
2021/01/23 08:17:12;;;;;;;27.80;18.15;;;;;;;12.34;100.00;100581.75;5035235;28;20029;-72
2021/01/23 08:19:58;;;;;;;25.73;17.20;;;;;;;12.48;100.00;100579.59;5035033;28;20033;-72
2021/01/23 08:23:06;;;;;;;21.83;13.93;;;;;;;12.37;100.00;100577.28;5034726;28;20162;-73
2021/01/23 08:25:55;;;;;;;13.05;8.73;;;;;;;12.36;100.00;100574.69;5034931;28;20116;-74
2021/01/23 08:28:43;;;;;;;16.73;9.48;;;;;;;13.03;100.00;100575.38;5036368;28;20032;-74
2021/01/23 08:31:29;;;;;;;16.45;10.95;;;;;;;12.97;100.00;100580.84;5034790;28;20112;-74
2021/01/23 08:34:15;;;;;;;17.45;12.15;;;;;;;13.23;100.00;100580.91;5035043;28;20045;-73
2021/01/23 08:37:01;;;;;;;17.10;11.57;;;;;;;13.12;100.00;100583.03;5034745;28;20374;-72
2021/01/23 08:39:48;;;;;;;20.20;13.35;;;;;;;13.54;100.00;100578.19;5035223;28;20021;-73
2021/01/23 08:42:34;;;;;;;20.05;11.65;;;;;;;13.26;100.00;100567.69;5033508;28;20045;-72
2021/01/23 08:45:22;;;;;;;14.45;10.02;;;;;;;13.53;100.00;100566.81;5035279;28;20470;-73
2021/01/23 08:48:07;;;;;;;14.85;9.43;;;;;;;13.65;100.00;100566.44;5034922;28;20026;-73
2021/01/23 08:50:53;;;;;;;16.45;9.98;;;;;;;14.39;100.00;100567.41;5034593;28;20071;-72
2021/01/23 08:53:39;;;;;;;17.83;10.98;;;;;;;14.07;100.00;100569.44;5035157;28;20347;-74
2021/01/23 08:56:25;;;;;;;18.42;11.73;;;;;;;13.99;100.00;100567.03;5035540;28;20029;-72
2021/01/23 08:59:11;;;;;;;20.55;13.40;;;;;;;14.17;100.00;100570.81;5035286;28;20033;-73
2021/01/23 09:01:56;;;;;;;20.40;12.77;;;;;;;14.21;100.00;100573.34;5035687;28;20515;-74
2021/01/23 09:04:42;;;;;;;15.93;11.23;;;;;;;14.01;100.00;100567.84;5036108;28;20040;-72
2021/01/23 09:07:28;;;;;;;18.38;10.63;;;;;;;14.35;100.00;100565.78;5035146;28;20355;-73
2021/01/23 09:10:13;;;;;;;15.43;10.00;;;;;;;14.30;100.00;100566.88;5036270;28;20036;-74
2021/01/23 09:12:59;;;;;;;14.88;9.70;;;;;;;14.41;100.00;100564.72;5035238;28;20025;-73
2021/01/23 09:15:45;;;;;;;16.92;9.15;;;;;;;14.91;100.00;100560.25;5035805;28;20032;-72
2021/01/23 09:18:32;;;;;;;13.07;7.88;;;;;;;15.16;100.00;100571.59;5035075;28;20044;-73
2021/01/23 09:21:18;;;;;;;10.55;6.40;;;;;;;15.19;100.00;100560.94;5036173;28;20040;-73
2021/01/23 09:24:04;;;;;;;17.35;6.30;;;;;;;15.37;100.00;100565.50;5036062;28;20041;-73
2021/01/23 09:26:50;;;;;;;11.90;6.10;;;;;;;15.58;100.00;100569.94;5034458;28;20072;-73
2021/01/23 09:29:35;;;;;;;9.40;6.15;;;;;;;15.84;100.00;100572.41;5033489;28;20033;-73
2021/01/23 09:32:22;;;;;;;18.63;13.10;;;;;;;15.50;100.00;100567.59;5034627;28;20076;-74
2021/01/23 09:35:08;;;;;;;16.25;9.90;;;;;;;15.89;100.00;100566.00;5033472;28;20029;-74
2021/01/23 09:37:54;;;;;;;12.40;7.50;;;;;;;15.87;99.75;100557.25;5019894;28;20099;-74
2021/01/23 09:40:39;;;;;;;14.93;6.03;;;;;;;15.68;99.68;100552.81;5035051;28;20029;-74
2021/01/23 09:43:25;;;;;;;12.40;8.00;;;;;;;15.97;99.48;100560.38;5032941;28;20049;-73
2021/01/23 09:46:14;;;;;;;9.75;5.43;;;;;;;16.00;98.85;100554.97;5034227;28;20029;-73
2021/01/23 09:49:00;;;;;;;12.98;6.00;;;;;;;15.95;97.80;100547.22;5033864;28;20029;-72
2021/01/23 09:51:46;;;;;;;9.20;7.43;;;;;;;16.55;94.92;100549.91;5034226;28;20050;-72
2021/01/23 09:54:32;;;;;;;12.20;7.60;;;;;;;16.24;95.53;100546.00;5039066;28;20025;-72
2021/01/23 09:57:17;;;;;;;10.43;6.20;;;;;;;16.43;95.22;100547.81;5040912;28;20052;-73
2021/01/23 10:00:05;;;;;;;19.65;11.52;;;;;;;16.37;95.83;100552.47;5040407;28;20029;-73
2021/01/23 10:02:51;;;;;;;16.50;5.18;;;;;;;15.81;96.90;100548.72;5028052;28;20026;-73
2021/01/23 10:05:37;;;;;;;11.32;5.93;;;;;;;16.20;95.43;100544.41;5041054;28;20025;-73
2021/01/23 10:08:23;;;;;;;10.43;5.32;;;;;;;16.35;93.59;100543.75;5041118;28;20492;-73
2021/01/23 10:11:08;;;;;;;11.80;5.25;;;;;;;15.99;94.60;100543.53;5039863;28;20029;-73
2021/01/23 10:13:54;;;;;;;14.00;7.00;;;;;;;16.18;95.08;100536.56;5040442;28;20025;-73
2021/01/23 10:16:40;;;;;;;13.10;8.15;;;;;;;16.77;92.68;100536.59;5040529;28;20029;-74
2021/01/23 10:19:26;;;;;;;15.32;10.10;;;;;;;16.60;94.02;100537.34;5039828;28;20084;-73
2021/01/23 10:22:12;;;;;;;14.90;7.63;;;;;;;16.37;94.52;100534.84;5040208;28;20018;-73
2021/01/23 10:24:58;;;;;;;10.10;6.00;;;;;;;16.52;93.77;100520.94;5040006;28;20107;-73
2021/01/23 10:27:43;;;;;;;13.43;6.43;;;;;;;16.75;92.32;100527.84;5040880;28;20444;-72
2021/01/23 10:30:29;;;;;;;21.08;6.95;;;;;;;16.64;92.36;100527.50;5041144;28;20036;-73
2021/01/23 10:33:15;;;;;;;12.20;6.07;;;;;;;16.36;94.20;100527.81;5041540;28;20025;-73
2021/01/23 10:36:01;;;;;;;10.52;6.55;;;;;;;16.39;94.97;100519.75;5040599;28;20022;-74
2021/01/23 10:38:47;;;;;;;10.40;5.78;;;;;;;16.55;94.07;100520.81;5041110;28;20331;-73
2021/01/23 10:41:33;;;;;;;14.68;6.30;;;;;;;16.64;94.46;100514.25;5040535;28;20031;-73
2021/01/23 10:44:19;;;;;;;13.82;6.15;;;;;;;16.89;92.60;100515.72;5026514;28;20037;-72
2021/01/23 10:47:09;;;;;;;13.02;6.38;;;;;;;16.86;93.27;100512.34;5040564;28;20361;-73
2021/01/23 10:49:54;;;;;;;8.90;6.22;;;;;;;16.87;92.66;100504.34;5040051;28;20044;-73
2021/01/23 10:52:40;;;;;;;16.35;5.93;;;;;;;16.04;96.32;100495.78;5039543;28;20030;-73
2021/01/23 10:55:27;;;;;;;16.40;6.72;;;;;;;16.61;94.89;100499.41;5040058;28;20040;-73
2021/01/23 10:58:12;;;;;;;12.05;5.60;;;;;;;16.19;96.80;100495.13;5040589;28;20029;-73
2021/01/23 11:00:58;;;;;;;10.80;5.47;;;;;;;16.24;94.89;100485.22;5039697;28;20450;-74
2021/01/23 11:03:44;;;;;;;8.80;4.72;;;;;;;16.22;94.94;100477.34;5039987;28;20120;-73
2021/01/23 11:06:30;;;;;;;6.75;4.13;;;;;;;16.14;94.42;100473.31;5021990;28;20029;-73
2021/01/23 11:09:16;;;;;;;8.07;3.97;;;;;;;16.14;95.14;100465.38;5037031;28;20033;-73
2021/01/23 11:12:01;;;;;;;6.70;4.28;;;;;;;16.31;93.66;100463.69;5036428;28;20125;-73
2021/01/23 11:14:47;;;;;;;9.45;3.95;;;;;;;16.26;94.83;100459.53;5036413;28;20021;-74
2021/01/23 11:17:33;;;;;;;7.88;3.78;;;;;;;16.16;93.95;100455.59;5036347;28;20033;-74
2021/01/23 11:20:19;;;;;;;9.25;4.20;;;;;;;16.43;94.07;100462.34;5021924;28;20021;-74
2021/01/23 11:23:05;;;;;;;7.40;4.60;;;;;;;16.27;94.12;100450.72;5023116;28;20052;-73
2021/01/23 11:25:51;;;;;;;7.00;4.35;;;;;;;16.45;93.35;100455.19;5036247;28;20040;-73
2021/01/23 11:28:38;;;;;;;13.05;5.28;;;;;;;16.39;92.83;100442.22;5022677;28;20041;-72
2021/01/23 11:31:24;;;;;;;8.73;6.00;;;;;;;16.53;94.04;100442.47;5036055;28;20421;-72
2021/01/23 11:34:10;;;;;;;12.00;5.50;;;;;;;16.77;92.25;100441.34;5036402;28;20028;-73
2021/01/23 11:36:56;;;;;;;10.80;5.20;;;;;;;16.52;93.78;100441.59;5036092;28;20056;-74
2021/01/23 11:39:42;;;;;;;8.93;4.55;;;;;;;16.69;93.15;100432.91;5035468;28;20029;-74
2021/01/23 11:42:28;;;;;;;9.93;5.20;;;;;;;16.65;93.63;100426.03;5035491;28;20046;-73
2021/01/23 11:45:14;;;;;;;10.02;4.55;;;;;;;16.40;94.66;100418.34;5036071;28;20029;-73
2021/01/23 11:48:00;;;;;;;6.57;4.22;;;;;;;16.32;94.80;100433.69;5035850;28;20037;-73
2021/01/23 11:50:45;;;;;;;11.70;4.43;;;;;;;16.64;92.87;100421.69;5036274;28;20022;-73
2021/01/23 11:53:32;;;;;;;5.97;4.15;;;;;;;16.68;92.40;100420.59;5035151;28;20026;-73
2021/01/23 11:56:18;;;;;;;9.98;5.10;;;;;;;16.96;91.54;100418.38;5036221;28;20032;-73
2021/01/23 11:59:04;;;;;;;8.45;5.40;;;;;;;16.52;92.02;100422.25;5036023;28;20041;-73
2021/01/23 12:01:50;;;;;;;9.13;5.15;;;;;;;16.91;91.54;100412.41;5035632;28;20037;-73
2021/01/23 12:04:36;;;;;;;6.00;4.57;;;;;;;16.72;91.76;100417.72;5021544;28;20465;-74
2021/01/23 12:07:21;;;;;;;7.07;4.78;;;;;;;16.79;91.32;100410.34;5035588;28;20413;-73
2021/01/23 12:10:08;;;;;;;7.60;5.00;;;;;;;16.81;91.27;100409.38;5035976;28;20079;-72
2021/01/23 12:12:55;;;;;;;9.65;5.68;;;;;;;16.93;90.36;100410.56;5034777;28;20437;-73
2021/01/23 12:15:41;;;;;;;8.73;5.55;;;;;;;16.60;93.08;100402.44;5036066;28;20038;-73
2021/01/23 12:18:27;;;;;;;9.88;5.40;;;;;;;16.90;91.86;100397.47;5033950;28;20030;-73
2021/01/23 12:21:13;;;;;;;11.88;5.28;;;;;;;16.21;96.08;100393.69;5036040;28;20032;-73
2021/01/23 12:23:58;;;;;;;10.82;5.70;;;;;;;16.58;94.30;100392.84;5035120;28;20057;-74
2021/01/23 12:26:44;;;;;;;9.07;5.45;;;;;;;16.73;94.21;100397.44;5035886;28;20021;-73
2021/01/23 12:29:30;;;;;;;9.15;5.00;;;;;;;16.62;93.43;100382.06;5021147;28;20036;-73
2021/01/23 12:32:16;;;;;;;7.65;4.10;;;;;;;16.46;93.85;100377.56;5035503;28;20021;-74
2021/01/23 12:35:06;;;;;;;9.23;4.53;;;;;;;16.39;94.66;100371.66;5035232;28;20454;-73
2021/01/23 12:37:57;;;;;;;7.45;4.30;;;;;;;16.70;92.71;100377.28;5036203;28;20366;-73
2021/01/23 12:40:42;;;;;;;7.45;4.20;;;;;;;16.48;91.95;100373.91;5035230;28;20025;-73
2021/01/23 12:43:28;;;;;;;8.75;4.45;;;;;;;16.43;93.13;100368.00;5034655;28;20073;-73
2021/01/23 12:46:14;;;;;;;8.88;5.18;;;;;;;16.59;91.82;100366.34;5035195;28;20026;-73